Main page
METAR-TAF:

METAR-TAF

Airports :

RAF Lossiemouth

Lossiemouth, Scotland

latitude: 57-43N, longitude: 003-19W, elevation: 13 m

Current weather observation

The report was made 41 minutes ago, at 15:50 UTC
Wind 5 kt from the Northeast
Temperature 19°C
Humidity 68%
Pressure 1030 hPa
Visibility 10 km or more
Few clouds at a height of 3200 ft

METAR: EGQS 281550Z 05005KT 9999 FEW032 19/13 Q1030 NOSIG RMK BLU BLU

Time: 17:31 (16:31 UTC)

Forecast

The report was made 3 hours and 13 minutes ago, at 13:18 UTC
Forecast valid from 28 at 15 UTC to 29 at 09 UTC
Wind 8 kt from the Northeast
Visibility 10 km or more
Scattered clouds at a height of 4000 ft
Probability 30%
from 29 at 00 UTC to 29 at 08 UTC
Visibility: 0700 m
Scattered clouds at a height of 200 ft
fog

TAF: EGQS 281318Z 2815/2909 04008KT 9999 SCT040 PROB30 2900/2908 0700 FG SCT002

Weather observations and forecasts of more than 4000 airports (METAR and TAF reports).

The available stations are represented by yellow and red dots on the map.

Hover mouse over dot to see the name of the station.

Then click to see weather observations and forecasts.

To change the map : click on the green buttons with a black cross to zoom in, on the green button with a dash to zoom out, or on the green arrows for adjacent maps.


METAR-TAF: